sensor_id;sensor_type;location;lat;lon;timestamp;P1;durP1;ratioP1;P2;durP2;ratioP2
34814;SDS011;21030;53.912;15.214;2022-09-24T00:02:00;3.85;;;2.10;;
34814;SDS011;21030;53.912;15.214;2022-09-24T00:04:28;2.80;;;1.52;;
34814;SDS011;21030;53.912;15.214;2022-09-24T00:06:56;2.22;;;0.77;;
34814;SDS011;21030;53.912;15.214;2022-09-24T00:09:23;2.67;;;1.00;;
34814;SDS011;21030;53.912;15.214;2022-09-24T00:11:50;1.00;;;0.43;;
34814;SDS011;21030;53.912;15.214;2022-09-24T00:14:20;1.35;;;1.23;;
34814;SDS011;21030;53.912;15.214;2022-09-24T00:16:47;2.03;;;1.13;;
34814;SDS011;21030;53.912;15.214;2022-09-24T00:19:15;1.30;;;0.57;;
34814;SDS011;21030;53.912;15.214;2022-09-24T00:21:42;3.97;;;1.15;;
34814;SDS011;21030;53.912;15.214;2022-09-24T00:24:12;12.02;;;1.55;;
34814;SDS011;21030;53.912;15.214;2022-09-24T00:27:00;1.88;;;1.70;;
34814;SDS011;21030;53.912;15.214;2022-09-24T00:29:29;3.47;;;1.15;;
34814;SDS011;21030;53.912;15.214;2022-09-24T00:32:00;0.60;;;0.60;;
34814;SDS011;21030;53.912;15.214;2022-09-24T00:34:29;3.67;;;1.67;;
34814;SDS011;21030;53.912;15.214;2022-09-24T00:36:56;1.88;;;1.17;;
34814;SDS011;21030;53.912;15.214;2022-09-24T00:39:23;1.48;;;0.73;;
34814;SDS011;21030;53.912;15.214;2022-09-24T00:42:14;1.85;;;0.80;;
34814;SDS011;21030;53.912;15.214;2022-09-24T00:44:47;1.85;;;0.95;;
34814;SDS011;21030;53.912;15.214;2022-09-24T00:49:58;2.15;;;1.25;;
34814;SDS011;21030;53.912;15.214;2022-09-24T00:52:32;2.40;;;1.30;;
34814;SDS011;21030;53.912;15.214;2022-09-24T00:55:02;2.13;;;0.70;;
34814;SDS011;21030;53.912;15.214;2022-09-24T00:57:30;2.97;;;1.30;;
34814;SDS011;21030;53.912;15.214;2022-09-24T00:59:57;1.75;;;0.65;;
34814;SDS011;21030;53.912;15.214;2022-09-24T01:02:24;1.17;;;0.85;;
34814;SDS011;21030;53.912;15.214;2022-09-24T01:04:52;1.85;;;0.80;;
34814;SDS011;21030;53.912;15.214;2022-09-24T01:07:22;6.03;;;1.13;;
34814;SDS011;21030;53.912;15.214;2022-09-24T01:09:49;2.85;;;0.98;;
34814;SDS011;21030;53.912;15.214;2022-09-24T01:12:28;2.58;;;1.30;;
34814;SDS011;21030;53.912;15.214;2022-09-24T01:17:59;3.47;;;1.45;;
34814;SDS011;21030;53.912;15.214;2022-09-24T01:31:39;1.05;;;0.47;;
34814;SDS011;21030;53.912;15.214;2022-09-24T01:34:16;1.45;;;1.05;;
34814;SDS011;21030;53.912;15.214;2022-09-24T01:36:48;2.67;;;1.70;;
34814;SDS011;21030;53.912;15.214;2022-09-24T01:39:17;4.03;;;1.20;;
34814;SDS011;21030;53.912;15.214;2022-09-24T01:41:46;3.05;;;1.48;;
34814;SDS011;21030;53.912;15.214;2022-09-24T01:44:14;1.33;;;1.08;;
34814;SDS011;21030;53.912;15.214;2022-09-24T01:46:44;2.05;;;0.93;;
34814;SDS011;21030;53.912;15.214;2022-09-24T01:49:11;2.78;;;1.88;;
34814;SDS011;21030;53.912;15.214;2022-09-24T01:51:42;3.33;;;1.63;;
34814;SDS011;21030;53.912;15.214;2022-09-24T01:56:57;2.40;;;0.93;;
34814;SDS011;21030;53.912;15.214;2022-09-24T01:59:46;1.73;;;1.00;;
34814;SDS011;21030;53.912;15.214;2022-09-24T02:02:26;3.00;;;1.02;;
34814;SDS011;21030;53.912;15.214;2022-09-24T02:05:02;3.03;;;1.42;;
34814;SDS011;21030;53.912;15.214;2022-09-24T02:10:19;2.40;;;1.33;;
34814;SDS011;21030;53.912;15.214;2022-09-24T02:12:50;3.63;;;1.58;;
34814;SDS011;21030;53.912;15.214;2022-09-24T02:15:25;2.60;;;1.80;;
34814;SDS011;21030;53.912;15.214;2022-09-24T02:17:59;4.18;;;1.23;;
34814;SDS011;21030;53.912;15.214;2022-09-24T02:20:31;2.08;;;1.08;;
34814;SDS011;21030;53.912;15.214;2022-09-24T02:23:00;1.67;;;1.33;;
34814;SDS011;21030;53.912;15.214;2022-09-24T02:25:30;3.38;;;0.95;;
34814;SDS011;21030;53.912;15.214;2022-09-24T02:28:07;0.88;;;0.63;;
34814;SDS011;21030;53.912;15.214;2022-09-24T02:30:39;3.10;;;1.25;;
34814;SDS011;21030;53.912;15.214;2022-09-24T02:33:09;1.13;;;1.02;;
34814;SDS011;21030;53.912;15.214;2022-09-24T02:35:58;3.35;;;1.52;;
34814;SDS011;21030;53.912;15.214;2022-09-24T02:38:26;1.25;;;0.80;;
34814;SDS011;21030;53.912;15.214;2022-09-24T02:40:53;1.95;;;1.27;;
34814;SDS011;21030;53.912;15.214;2022-09-24T02:43:21;1.40;;;1.05;;
34814;SDS011;21030;53.912;15.214;2022-09-24T02:45:48;2.35;;;1.50;;
34814;SDS011;21030;53.912;15.214;2022-09-24T02:48:14;5.40;;;1.90;;
34814;SDS011;21030;53.912;15.214;2022-09-24T02:50:41;5.30;;;1.33;;
34814;SDS011;21030;53.912;15.214;2022-09-24T02:53:09;3.03;;;1.73;;
34814;SDS011;21030;53.912;15.214;2022-09-24T02:55:36;2.50;;;1.27;;
34814;SDS011;21030;53.912;15.214;2022-09-24T02:58:03;2.13;;;1.10;;
34814;SDS011;21030;53.912;15.214;2022-09-24T03:00:30;6.85;;;0.95;;
34814;SDS011;21030;53.912;15.214;2022-09-24T03:02:57;3.53;;;2.35;;
34814;SDS011;21030;53.912;15.214;2022-09-24T03:05:24;2.78;;;0.95;;
34814;SDS011;21030;53.912;15.214;2022-09-24T03:07:51;2.38;;;0.88;;
34814;SDS011;21030;53.912;15.214;2022-09-24T03:10:18;4.05;;;2.03;;
34814;SDS011;21030;53.912;15.214;2022-09-24T03:12:45;0.95;;;0.70;;
34814;SDS011;21030;53.912;15.214;2022-09-24T03:15:12;2.00;;;1.15;;
34814;SDS011;21030;53.912;15.214;2022-09-24T03:17:39;3.63;;;1.23;;
34814;SDS011;21030;53.912;15.214;2022-09-24T03:20:06;1.80;;;0.82;;
34814;SDS011;21030;53.912;15.214;2022-09-24T03:22:33;3.10;;;1.38;;
34814;SDS011;21030;53.912;15.214;2022-09-24T03:25:00;1.52;;;1.23;;
34814;SDS011;21030;53.912;15.214;2022-09-24T03:27:28;2.90;;;1.48;;
34814;SDS011;21030;53.912;15.214;2022-09-24T03:29:55;2.40;;;0.85;;
34814;SDS011;21030;53.912;15.214;2022-09-24T03:32:41;1.85;;;1.48;;
34814;SDS011;21030;53.912;15.214;2022-09-24T03:35:09;3.25;;;1.63;;
34814;SDS011;21030;53.912;15.214;2022-09-24T03:37:37;2.22;;;1.13;;
34814;SDS011;21030;53.912;15.214;2022-09-24T03:40:04;2.20;;;1.00;;
34814;SDS011;21030;53.912;15.214;2022-09-24T03:42:34;4.00;;;1.23;;
34814;SDS011;21030;53.912;15.214;2022-09-24T03:45:02;3.00;;;1.77;;
34814;SDS011;21030;53.912;15.214;2022-09-24T03:47:29;1.70;;;0.60;;
34814;SDS011;21030;53.912;15.214;2022-09-24T03:49:57;1.25;;;0.98;;
34814;SDS011;21030;53.912;15.214;2022-09-24T03:52:24;2.05;;;0.90;;
34814;SDS011;21030;53.912;15.214;2022-09-24T03:54:51;2.30;;;1.50;;
34814;SDS011;21030;53.912;15.214;2022-09-24T03:57:18;1.45;;;1.00;;
34814;SDS011;21030;53.912;15.214;2022-09-24T03:59:46;1.83;;;0.88;;
34814;SDS011;21030;53.912;15.214;2022-09-24T04:02:13;1.77;;;0.88;;
34814;SDS011;21030;53.912;15.214;2022-09-24T04:04:43;1.63;;;0.98;;
34814;SDS011;21030;53.912;15.214;2022-09-24T04:07:10;1.00;;;0.70;;
34814;SDS011;21030;53.912;15.214;2022-09-24T04:09:37;2.13;;;0.95;;
34814;SDS011;21030;53.912;15.214;2022-09-24T04:12:04;1.35;;;0.80;;
34814;SDS011;21030;53.912;15.214;2022-09-24T04:14:32;2.58;;;1.10;;
34814;SDS011;21030;53.912;15.214;2022-09-24T04:16:59;3.03;;;1.70;;
34814;SDS011;21030;53.912;15.214;2022-09-24T04:19:26;1.88;;;1.35;;
34814;SDS011;21030;53.912;15.214;2022-09-24T04:21:53;3.15;;;1.77;;
34814;SDS011;21030;53.912;15.214;2022-09-24T04:24:20;5.43;;;1.10;;
34814;SDS011;21030;53.912;15.214;2022-09-24T04:26:47;3.70;;;1.52;;
34814;SDS011;21030;53.912;15.214;2022-09-24T04:29:14;2.60;;;1.65;;
34814;SDS011;21030;53.912;15.214;2022-09-24T04:31:41;5.18;;;1.13;;
34814;SDS011;21030;53.912;15.214;2022-09-24T04:34:08;2.03;;;0.93;;
34814;SDS011;21030;53.912;15.214;2022-09-24T04:36:35;1.10;;;0.55;;
34814;SDS011;21030;53.912;15.214;2022-09-24T04:39:02;2.05;;;1.08;;
34814;SDS011;21030;53.912;15.214;2022-09-24T04:41:30;3.20;;;1.08;;
34814;SDS011;21030;53.912;15.214;2022-09-24T04:43:57;5.22;;;1.95;;
34814;SDS011;21030;53.912;15.214;2022-09-24T04:46:24;1.60;;;0.98;;
34814;SDS011;21030;53.912;15.214;2022-09-24T04:48:51;1.80;;;1.13;;
34814;SDS011;21030;53.912;15.214;2022-09-24T04:51:22;3.73;;;1.57;;
34814;SDS011;21030;53.912;15.214;2022-09-24T04:53:50;4.60;;;1.45;;
34814;SDS011;21030;53.912;15.214;2022-09-24T04:56:17;1.75;;;0.95;;
34814;SDS011;21030;53.912;15.214;2022-09-24T04:58:48;0.90;;;0.85;;
34814;SDS011;21030;53.912;15.214;2022-09-24T05:01:15;2.78;;;1.40;;
34814;SDS011;21030;53.912;15.214;2022-09-24T05:03:43;2.30;;;1.80;;
34814;SDS011;21030;53.912;15.214;2022-09-24T05:06:11;2.55;;;1.35;;
34814;SDS011;21030;53.912;15.214;2022-09-24T05:08:38;0.70;;;0.57;;
34814;SDS011;21030;53.912;15.214;2022-09-24T05:11:06;4.20;;;2.60;;
34814;SDS011;21030;53.912;15.214;2022-09-24T05:13:34;4.97;;;1.48;;
34814;SDS011;21030;53.912;15.214;2022-09-24T05:16:01;1.92;;;0.93;;
34814;SDS011;21030;53.912;15.214;2022-09-24T05:18:28;4.20;;;1.75;;
34814;SDS011;21030;53.912;15.214;2022-09-24T05:20:56;2.05;;;0.80;;
34814;SDS011;21030;53.912;15.214;2022-09-24T05:23:23;1.65;;;1.38;;
34814;SDS011;21030;53.912;15.214;2022-09-24T05:25:50;1.67;;;1.08;;
34814;SDS011;21030;53.912;15.214;2022-09-24T05:28:36;2.67;;;1.48;;
34814;SDS011;21030;53.912;15.214;2022-09-24T05:31:05;4.95;;;1.98;;
34814;SDS011;21030;53.912;15.214;2022-09-24T05:33:36;4.13;;;1.80;;
34814;SDS011;21030;53.912;15.214;2022-09-24T05:36:03;2.25;;;1.17;;
34814;SDS011;21030;53.912;15.214;2022-09-24T05:38:30;2.72;;;1.88;;
34814;SDS011;21030;53.912;15.214;2022-09-24T05:40:58;3.28;;;1.38;;
34814;SDS011;21030;53.912;15.214;2022-09-24T05:43:25;1.75;;;1.08;;
34814;SDS011;21030;53.912;15.214;2022-09-24T05:45:57;3.42;;;1.58;;
34814;SDS011;21030;53.912;15.214;2022-09-24T05:48:24;3.35;;;1.48;;
34814;SDS011;21030;53.912;15.214;2022-09-24T05:50:51;4.07;;;1.55;;
34814;SDS011;21030;53.912;15.214;2022-09-24T05:53:20;1.83;;;1.23;;
34814;SDS011;21030;53.912;15.214;2022-09-24T05:55:50;1.95;;;1.23;;
34814;SDS011;21030;53.912;15.214;2022-09-24T05:58:20;1.10;;;0.57;;
34814;SDS011;21030;53.912;15.214;2022-09-24T06:00:48;2.03;;;1.02;;
34814;SDS011;21030;53.912;15.214;2022-09-24T06:03:16;2.10;;;1.02;;
34814;SDS011;21030;53.912;15.214;2022-09-24T06:05:45;2.05;;;1.45;;
34814;SDS011;21030;53.912;15.214;2022-09-24T06:08:14;4.97;;;1.67;;
34814;SDS011;21030;53.912;15.214;2022-09-24T06:10:42;3.28;;;1.92;;
34814;SDS011;21030;53.912;15.214;2022-09-24T06:13:15;1.85;;;1.35;;
34814;SDS011;21030;53.912;15.214;2022-09-24T06:15:44;2.17;;;1.75;;
34814;SDS011;21030;53.912;15.214;2022-09-24T06:18:11;3.72;;;1.98;;
34814;SDS011;21030;53.912;15.214;2022-09-24T06:20:39;3.70;;;2.03;;
34814;SDS011;21030;53.912;15.214;2022-09-24T06:23:06;2.58;;;1.35;;
34814;SDS011;21030;53.912;15.214;2022-09-24T06:25:34;1.55;;;1.23;;
34814;SDS011;21030;53.912;15.214;2022-09-24T06:28:02;3.47;;;2.25;;
34814;SDS011;21030;53.912;15.214;2022-09-24T06:30:32;7.80;;;2.10;;
34814;SDS011;21030;53.912;15.214;2022-09-24T06:33:04;5.88;;;2.20;;
34814;SDS011;21030;53.912;15.214;2022-09-24T06:35:35;5.63;;;2.58;;
34814;SDS011;21030;53.912;15.214;2022-09-24T06:38:03;10.02;;;2.13;;
34814;SDS011;21030;53.912;15.214;2022-09-24T06:40:32;9.20;;;2.28;;
34814;SDS011;21030;53.912;15.214;2022-09-24T06:43:02;5.68;;;2.72;;
34814;SDS011;21030;53.912;15.214;2022-09-24T06:45:33;2.58;;;1.55;;
34814;SDS011;21030;53.912;15.214;2022-09-24T06:48:01;8.65;;;2.47;;
34814;SDS011;21030;53.912;15.214;2022-09-24T06:50:31;2.65;;;1.60;;
34814;SDS011;21030;53.912;15.214;2022-09-24T06:53:02;4.40;;;1.98;;
34814;SDS011;21030;53.912;15.214;2022-09-24T06:55:30;3.00;;;1.85;;
34814;SDS011;21030;53.912;15.214;2022-09-24T06:58:03;1.67;;;1.13;;
34814;SDS011;21030;53.912;15.214;2022-09-24T07:00:34;5.93;;;1.67;;
34814;SDS011;21030;53.912;15.214;2022-09-24T07:03:02;8.88;;;2.33;;
34814;SDS011;21030;53.912;15.214;2022-09-24T07:05:30;3.45;;;2.20;;
34814;SDS011;21030;53.912;15.214;2022-09-24T07:07:58;4.63;;;1.48;;
34814;SDS011;21030;53.912;15.214;2022-09-24T07:10:25;3.70;;;2.20;;
34814;SDS011;21030;53.912;15.214;2022-09-24T07:12:53;2.47;;;1.80;;
34814;SDS011;21030;53.912;15.214;2022-09-24T07:15:20;1.55;;;1.35;;
34814;SDS011;21030;53.912;15.214;2022-09-24T07:17:48;3.17;;;2.38;;
34814;SDS011;21030;53.912;15.214;2022-09-24T07:20:19;2.97;;;1.63;;
34814;SDS011;21030;53.912;15.214;2022-09-24T07:22:47;2.55;;;1.52;;
34814;SDS011;21030;53.912;15.214;2022-09-24T07:25:16;1.08;;;0.93;;
34814;SDS011;21030;53.912;15.214;2022-09-24T07:27:43;2.75;;;1.55;;
34814;SDS011;21030;53.912;15.214;2022-09-24T07:30:10;4.38;;;2.10;;
34814;SDS011;21030;53.912;15.214;2022-09-24T07:32:38;3.30;;;1.42;;
34814;SDS011;21030;53.912;15.214;2022-09-24T07:35:05;4.07;;;1.63;;
34814;SDS011;21030;53.912;15.214;2022-09-24T07:37:32;4.78;;;1.83;;
34814;SDS011;21030;53.912;15.214;2022-09-24T07:39:59;5.10;;;2.15;;
34814;SDS011;21030;53.912;15.214;2022-09-24T07:42:27;7.28;;;2.17;;
34814;SDS011;21030;53.912;15.214;2022-09-24T07:44:55;1.65;;;1.30;;
34814;SDS011;21030;53.912;15.214;2022-09-24T07:47:22;3.33;;;1.58;;
34814;SDS011;21030;53.912;15.214;2022-09-24T07:49:49;2.88;;;1.52;;
34814;SDS011;21030;53.912;15.214;2022-09-24T07:52:16;2.70;;;1.15;;
34814;SDS011;21030;53.912;15.214;2022-09-24T07:54:43;6.05;;;2.80;;
34814;SDS011;21030;53.912;15.214;2022-09-24T07:57:11;1.63;;;1.33;;
34814;SDS011;21030;53.912;15.214;2022-09-24T07:59:38;3.22;;;1.58;;
34814;SDS011;21030;53.912;15.214;2022-09-24T08:02:13;2.63;;;1.23;;
34814;SDS011;21030;53.912;15.214;2022-09-24T08:04:42;2.92;;;2.00;;
34814;SDS011;21030;53.912;15.214;2022-09-24T08:07:10;4.47;;;2.08;;
34814;SDS011;21030;53.912;15.214;2022-09-24T08:09:39;4.15;;;1.48;;
34814;SDS011;21030;53.912;15.214;2022-09-24T08:12:09;3.55;;;2.03;;
34814;SDS011;21030;53.912;15.214;2022-09-24T08:14:37;4.03;;;1.88;;
34814;SDS011;21030;53.912;15.214;2022-09-24T08:17:04;8.48;;;2.50;;
34814;SDS011;21030;53.912;15.214;2022-09-24T08:19:31;3.15;;;1.98;;
34814;SDS011;21030;53.912;15.214;2022-09-24T08:21:59;8.05;;;2.05;;
34814;SDS011;21030;53.912;15.214;2022-09-24T08:24:27;3.85;;;1.88;;
34814;SDS011;21030;53.912;15.214;2022-09-24T08:26:54;2.45;;;1.55;;
34814;SDS011;21030;53.912;15.214;2022-09-24T08:29:21;3.55;;;1.65;;
34814;SDS011;21030;53.912;15.214;2022-09-24T08:31:48;4.20;;;1.75;;
34814;SDS011;21030;53.912;15.214;2022-09-24T08:34:15;2.40;;;1.27;;
34814;SDS011;21030;53.912;15.214;2022-09-24T08:36:42;4.40;;;2.30;;
34814;SDS011;21030;53.912;15.214;2022-09-24T08:39:11;9.40;;;2.17;;
34814;SDS011;21030;53.912;15.214;2022-09-24T08:41:53;3.95;;;2.03;;
34814;SDS011;21030;53.912;15.214;2022-09-24T08:44:56;4.40;;;2.03;;
34814;SDS011;21030;53.912;15.214;2022-09-24T08:50:24;2.75;;;1.77;;
34814;SDS011;21030;53.912;15.214;2022-09-24T08:55:38;5.70;;;2.17;;
34814;SDS011;21030;53.912;15.214;2022-09-24T09:00:42;3.50;;;1.23;;
34814;SDS011;21030;53.912;15.214;2022-09-24T09:09:10;5.60;;;2.63;;
34814;SDS011;21030;53.912;15.214;2022-09-24T09:11:51;3.53;;;2.35;;
34814;SDS011;21030;53.912;15.214;2022-09-24T09:19:58;4.23;;;2.10;;
34814;SDS011;21030;53.912;15.214;2022-09-24T09:25:02;3.42;;;1.38;;
34814;SDS011;21030;53.912;15.214;2022-09-24T09:27:39;1.98;;;1.45;;
34814;SDS011;21030;53.912;15.214;2022-09-24T09:30:11;3.60;;;1.50;;
34814;SDS011;21030;53.912;15.214;2022-09-24T09:38:29;3.45;;;1.45;;
34814;SDS011;21030;53.912;15.214;2022-09-24T09:43:40;3.83;;;1.10;;
34814;SDS011;21030;53.912;15.214;2022-09-24T09:46:26;1.33;;;0.68;;
34814;SDS011;21030;53.912;15.214;2022-09-24T09:48:59;1.95;;;0.93;;
34814;SDS011;21030;53.912;15.214;2022-09-24T09:51:41;2.05;;;0.80;;
34814;SDS011;21030;53.912;15.214;2022-09-24T09:54:09;9.88;;;1.85;;
34814;SDS011;21030;53.912;15.214;2022-09-24T09:56:46;1.80;;;0.95;;
34814;SDS011;21030;53.912;15.214;2022-09-24T09:59:19;1.88;;;1.02;;
34814;SDS011;21030;53.912;15.214;2022-09-24T10:01:54;2.33;;;1.58;;
34814;SDS011;21030;53.912;15.214;2022-09-24T10:09:38;2.58;;;1.20;;
34814;SDS011;21030;53.912;15.214;2022-09-24T10:15:11;2.05;;;1.13;;
34814;SDS011;21030;53.912;15.214;2022-09-24T10:17:43;3.85;;;1.70;;
34814;SDS011;21030;53.912;15.214;2022-09-24T10:20:24;2.05;;;1.08;;
34814;SDS011;21030;53.912;15.214;2022-09-24T10:25:33;1.20;;;0.85;;
34814;SDS011;21030;53.912;15.214;2022-09-24T10:28:05;0.40;;;0.40;;
34814;SDS011;21030;53.912;15.214;2022-09-24T10:31:00;1.38;;;0.95;;
34814;SDS011;21030;53.912;15.214;2022-09-24T10:33:48;2.50;;;1.48;;
34814;SDS011;21030;53.912;15.214;2022-09-24T10:36:21;0.95;;;0.70;;
34814;SDS011;21030;53.912;15.214;2022-09-24T10:39:13;2.92;;;0.98;;
34814;SDS011;21030;53.912;15.214;2022-09-24T10:41:50;1.65;;;1.20;;
34814;SDS011;21030;53.912;15.214;2022-09-24T10:44:19;1.48;;;0.82;;
34814;SDS011;21030;53.912;15.214;2022-09-24T11:00:38;2.75;;;1.30;;
34814;SDS011;21030;53.912;15.214;2022-09-24T11:15:06;1.35;;;0.95;;
34814;SDS011;21030;53.912;15.214;2022-09-24T11:17:52;1.58;;;0.90;;
34814;SDS011;21030;53.912;15.214;2022-09-24T11:20:42;2.60;;;1.05;;
34814;SDS011;21030;53.912;15.214;2022-09-24T11:23:29;0.88;;;0.88;;
34814;SDS011;21030;53.912;15.214;2022-09-24T11:26:28;0.28;;;0.28;;
34814;SDS011;21030;53.912;15.214;2022-09-24T11:31:50;1.40;;;0.77;;
34814;SDS011;21030;53.912;15.214;2022-09-24T11:42:27;2.15;;;1.05;;
34814;SDS011;21030;53.912;15.214;2022-09-24T11:45:23;0.98;;;0.73;;
34814;SDS011;21030;53.912;15.214;2022-09-24T11:56:37;2.30;;;1.02;;
34814;SDS011;21030;53.912;15.214;2022-09-24T12:02:24;2.13;;;0.93;;
34814;SDS011;21030;53.912;15.214;2022-09-24T12:07:34;4.80;;;0.77;;
34814;SDS011;21030;53.912;15.214;2022-09-24T12:15:51;1.98;;;1.02;;
34814;SDS011;21030;53.912;15.214;2022-09-24T12:18:29;1.35;;;0.73;;
34814;SDS011;21030;53.912;15.214;2022-09-24T12:21:05;1.55;;;0.88;;
34814;SDS011;21030;53.912;15.214;2022-09-24T12:23:39;1.38;;;0.82;;
34814;SDS011;21030;53.912;15.214;2022-09-24T12:26:10;1.95;;;0.82;;
34814;SDS011;21030;53.912;15.214;2022-09-24T12:28:44;1.13;;;0.63;;
34814;SDS011;21030;53.912;15.214;2022-09-24T12:37:34;1.80;;;0.88;;
34814;SDS011;21030;53.912;15.214;2022-09-24T12:42:42;0.82;;;0.55;;
34814;SDS011;21030;53.912;15.214;2022-09-24T12:45:20;1.35;;;0.88;;
34814;SDS011;21030;53.912;15.214;2022-09-24T12:47:58;0.98;;;0.60;;
34814;SDS011;21030;53.912;15.214;2022-09-24T12:50:56;1.67;;;0.98;;
34814;SDS011;21030;53.912;15.214;2022-09-24T12:53:30;1.48;;;0.63;;
34814;SDS011;21030;53.912;15.214;2022-09-24T12:56:00;0.93;;;0.77;;
34814;SDS011;21030;53.912;15.214;2022-09-24T12:58:39;1.38;;;0.80;;
34814;SDS011;21030;53.912;15.214;2022-09-24T13:06:40;1.67;;;0.50;;
34814;SDS011;21030;53.912;15.214;2022-09-24T13:14:56;1.13;;;0.60;;
34814;SDS011;21030;53.912;15.214;2022-09-24T13:17:26;0.93;;;0.50;;
34814;SDS011;21030;53.912;15.214;2022-09-24T13:19:56;1.85;;;0.90;;
34814;SDS011;21030;53.912;15.214;2022-09-24T13:22:29;1.00;;;0.53;;
34814;SDS011;21030;53.912;15.214;2022-09-24T13:27:38;2.00;;;1.13;;
34814;SDS011;21030;53.912;15.214;2022-09-24T13:30:15;1.27;;;0.68;;
34814;SDS011;21030;53.912;15.214;2022-09-24T13:32:48;4.10;;;0.77;;
34814;SDS011;21030;53.912;15.214;2022-09-24T13:35:30;1.55;;;0.93;;
34814;SDS011;21030;53.912;15.214;2022-09-24T13:38:07;1.33;;;0.93;;
34814;SDS011;21030;53.912;15.214;2022-09-24T13:40:53;1.08;;;0.80;;
34814;SDS011;21030;53.912;15.214;2022-09-24T13:43:34;0.57;;;0.30;;
34814;SDS011;21030;53.912;15.214;2022-09-24T13:46:06;0.50;;;0.50;;
34814;SDS011;21030;53.912;15.214;2022-09-24T13:48:41;1.73;;;1.05;;
34814;SDS011;21030;53.912;15.214;2022-09-24T13:51:14;1.65;;;0.73;;
34814;SDS011;21030;53.912;15.214;2022-09-24T13:53:44;0.98;;;0.50;;
34814;SDS011;21030;53.912;15.214;2022-09-24T13:56:19;0.90;;;0.63;;
34814;SDS011;21030;53.912;15.214;2022-09-24T13:58:46;3.75;;;1.30;;
34814;SDS011;21030;53.912;15.214;2022-09-24T14:04:00;2.38;;;1.10;;
34814;SDS011;21030;53.912;15.214;2022-09-24T14:06:38;0.68;;;0.50;;
34814;SDS011;21030;53.912;15.214;2022-09-24T14:09:31;1.65;;;1.05;;
34814;SDS011;21030;53.912;15.214;2022-09-24T14:12:00;0.60;;;0.43;;
34814;SDS011;21030;53.912;15.214;2022-09-24T14:14:43;1.88;;;1.08;;
34814;SDS011;21030;53.912;15.214;2022-09-24T14:17:15;1.40;;;0.63;;
34814;SDS011;21030;53.912;15.214;2022-09-24T14:19:42;1.38;;;0.80;;
34814;SDS011;21030;53.912;15.214;2022-09-24T14:22:15;2.20;;;1.42;;
34814;SDS011;21030;53.912;15.214;2022-09-24T14:27:21;0.93;;;0.50;;
34814;SDS011;21030;53.912;15.214;2022-09-24T14:32:29;0.75;;;0.55;;
34814;SDS011;21030;53.912;15.214;2022-09-24T14:35:05;1.67;;;0.60;;
34814;SDS011;21030;53.912;15.214;2022-09-24T14:40:29;1.02;;;0.55;;
34814;SDS011;21030;53.912;15.214;2022-09-24T14:43:52;0.73;;;0.57;;
34814;SDS011;21030;53.912;15.214;2022-09-24T14:46:03;1.88;;;0.80;;
34814;SDS011;21030;53.912;15.214;2022-09-24T14:48:34;3.22;;;0.93;;
34814;SDS011;21030;53.912;15.214;2022-09-24T14:51:02;1.40;;;0.75;;
34814;SDS011;21030;53.912;15.214;2022-09-24T14:53:33;4.57;;;0.90;;
34814;SDS011;21030;53.912;15.214;2022-09-24T14:56:45;1.38;;;0.63;;
34814;SDS011;21030;53.912;15.214;2022-09-24T14:58:54;0.63;;;0.50;;
34814;SDS011;21030;53.912;15.214;2022-09-24T15:01:30;2.58;;;1.20;;
34814;SDS011;21030;53.912;15.214;2022-09-24T15:04:04;6.90;;;1.63;;
34814;SDS011;21030;53.912;15.214;2022-09-24T15:06:47;3.35;;;0.82;;
34814;SDS011;21030;53.912;15.214;2022-09-24T15:11:44;3.20;;;1.83;;
34814;SDS011;21030;53.912;15.214;2022-09-24T15:16:43;0.67;;;0.63;;
34814;SDS011;21030;53.912;15.214;2022-09-24T15:19:13;9.10;;;0.90;;
34814;SDS011;21030;53.912;15.214;2022-09-24T15:21:51;3.75;;;1.73;;
34814;SDS011;21030;53.912;15.214;2022-09-24T15:24:22;1.45;;;0.70;;
34814;SDS011;21030;53.912;15.214;2022-09-24T15:27:04;3.25;;;0.95;;
34814;SDS011;21030;53.912;15.214;2022-09-24T15:29:47;0.82;;;0.60;;
34814;SDS011;21030;53.912;15.214;2022-09-24T15:32:17;1.80;;;1.02;;
34814;SDS011;21030;53.912;15.214;2022-09-24T15:34:46;1.25;;;1.15;;
34814;SDS011;21030;53.912;15.214;2022-09-24T15:37:14;1.48;;;0.93;;
34814;SDS011;21030;53.912;15.214;2022-09-24T15:39:49;2.10;;;1.00;;
34814;SDS011;21030;53.912;15.214;2022-09-24T15:42:19;3.35;;;1.45;;
34814;SDS011;21030;53.912;15.214;2022-09-24T15:44:48;3.22;;;1.42;;
34814;SDS011;21030;53.912;15.214;2022-09-24T15:47:21;1.20;;;0.77;;
34814;SDS011;21030;53.912;15.214;2022-09-24T15:49:49;2.38;;;0.82;;
34814;SDS011;21030;53.912;15.214;2022-09-24T15:52:17;2.30;;;1.38;;
34814;SDS011;21030;53.912;15.214;2022-09-24T15:54:50;8.98;;;2.25;;
34814;SDS011;21030;53.912;15.214;2022-09-24T15:57:18;2.22;;;1.08;;
34814;SDS011;21030;53.912;15.214;2022-09-24T15:59:46;2.53;;;1.45;;
34814;SDS011;21030;53.912;15.214;2022-09-24T16:02:15;2.47;;;1.60;;
34814;SDS011;21030;53.912;15.214;2022-09-24T16:04:46;3.00;;;2.30;;
34814;SDS011;21030;53.912;15.214;2022-09-24T16:07:14;3.13;;;1.95;;
34814;SDS011;21030;53.912;15.214;2022-09-24T16:09:41;4.32;;;2.30;;
34814;SDS011;21030;53.912;15.214;2022-09-24T16:12:08;5.70;;;2.83;;
34814;SDS011;21030;53.912;15.214;2022-09-24T16:14:41;3.08;;;1.88;;
34814;SDS011;21030;53.912;15.214;2022-09-24T16:17:08;2.70;;;1.23;;
34814;SDS011;21030;53.912;15.214;2022-09-24T16:19:36;4.03;;;2.22;;
34814;SDS011;21030;53.912;15.214;2022-09-24T16:22:04;4.20;;;2.15;;
34814;SDS011;21030;53.912;15.214;2022-09-24T16:24:31;13.88;;;2.75;;
34814;SDS011;21030;53.912;15.214;2022-09-24T16:26:59;2.55;;;1.98;;
34814;SDS011;21030;53.912;15.214;2022-09-24T16:29:26;1.52;;;1.05;;
34814;SDS011;21030;53.912;15.214;2022-09-24T16:31:53;3.15;;;1.75;;
34814;SDS011;21030;53.912;15.214;2022-09-24T16:34:20;4.25;;;1.75;;
34814;SDS011;21030;53.912;15.214;2022-09-24T16:36:47;3.95;;;2.08;;
34814;SDS011;21030;53.912;15.214;2022-09-24T16:39:14;5.72;;;2.22;;
34814;SDS011;21030;53.912;15.214;2022-09-24T16:41:41;1.27;;;1.15;;
34814;SDS011;21030;53.912;15.214;2022-09-24T16:44:09;4.78;;;2.30;;
34814;SDS011;21030;53.912;15.214;2022-09-24T16:46:40;2.83;;;1.60;;
34814;SDS011;21030;53.912;15.214;2022-09-24T16:49:11;3.97;;;1.95;;
34814;SDS011;21030;53.912;15.214;2022-09-24T16:51:38;6.10;;;3.63;;
34814;SDS011;21030;53.912;15.214;2022-09-24T16:54:06;9.18;;;3.10;;
34814;SDS011;21030;53.912;15.214;2022-09-24T16:56:34;5.28;;;3.20;;
34814;SDS011;21030;53.912;15.214;2022-09-24T16:59:03;5.45;;;3.03;;
34814;SDS011;21030;53.912;15.214;2022-09-24T17:01:30;12.40;;;4.50;;
34814;SDS011;21030;53.912;15.214;2022-09-24T17:03:57;13.43;;;7.22;;
34814;SDS011;21030;53.912;15.214;2022-09-24T17:06:26;10.50;;;6.20;;
34814;SDS011;21030;53.912;15.214;2022-09-24T17:08:55;8.18;;;3.53;;
34814;SDS011;21030;53.912;15.214;2022-09-24T17:11:42;3.72;;;2.67;;
34814;SDS011;21030;53.912;15.214;2022-09-24T17:14:12;9.30;;;4.22;;
34814;SDS011;21030;53.912;15.214;2022-09-24T17:16:40;9.00;;;3.38;;
34814;SDS011;21030;53.912;15.214;2022-09-24T17:19:09;3.47;;;2.28;;
34814;SDS011;21030;53.912;15.214;2022-09-24T17:21:38;3.58;;;2.33;;
34814;SDS011;21030;53.912;15.214;2022-09-24T17:24:07;3.83;;;1.73;;
34814;SDS011;21030;53.912;15.214;2022-09-24T17:26:34;3.90;;;1.77;;
34814;SDS011;21030;53.912;15.214;2022-09-24T17:29:01;9.90;;;2.67;;
34814;SDS011;21030;53.912;15.214;2022-09-24T17:31:30;3.90;;;1.75;;
34814;SDS011;21030;53.912;15.214;2022-09-24T17:34:01;4.00;;;1.98;;
34814;SDS011;21030;53.912;15.214;2022-09-24T17:36:30;6.78;;;2.75;;